Adderbury Half Marathon, 10k & 5k & Walk
Skip Navigation Links
Results
Leaderboard
Course Map
Race Stats
Smartphone Results
09 July 2017
HyperLink
Click on a name for more detailed results
Page 1 of 2 (84 items)
[1]2
Pos
Bib No
Fav
Share
Print
Name
Time
Chip Time *
Gender
Gen Pos
Club
Pace
136Ali HERBERT1:27:07.01:27:06.2Male1  9.0 m/hr
280Jeffrey TRYBUS1:31:14.01:31:13.0Male2CHERWELL RUNNERS & JOGGERS 8.6 m/hr
376Ian THOMAS1:31:44.51:31:43.3Male3CHERWELL RUNNERS & JOGGERS 8.6 m/hr
469Mark STILEMAN1:32:15.81:32:14.5Male4ROMSEY ROAD RUNNERS 8.5 m/hr
595Kevin GAME1:33:44.51:33:41.7Male5WOODSTOCK HARRIERS AC 8.4 m/hr
650Jenny MCBAIN1:34:02.51:34:01.0Female1ALCHESTER RUNNING CLUB 8.4 m/hr
718Chris COLBECK1:34:23.71:34:20.1Male6WITNEY ROAD RUNNERS 8.3 m/hr
825Adam FAIRHURST - GROETHE 1:35:37.11:35:34.8Male7  8.2 m/hr
961Simon PRITCHARD1:35:52.31:35:50.5Male8BANBURY HARRIERS AC 8.2 m/hr
104David BANNISTER1:37:26.81:37:25.3Male9HOOK NORTON HARRIERS 8.1 m/hr
1158Daniel PEBODY 1:38:47.61:38:46.0Male10  8.0 m/hr
1291Shaun O'GORMAN1:39:05.31:39:02.9Male11ALCHESTER RUNNING CLUB 7.9 m/hr
1331Richard FRANCIS1:40:00.31:39:57.8Male12ALCHESTER RUNNING CLUB 7.9 m/hr
1456Kevin NORTHAM1:40:18.21:40:14.8Male13CHERWELL RUNNERS & JOGGERS 7.8 m/hr
1562Anthony REDHEAD1:40:33.41:40:30.4Male14CHERWELL RUNNERS & JOGGERS 7.8 m/hr
1628James FINNIGAN1:41:43.71:41:38.2Male15KIDLINGTON RUNNING CLUB 7.7 m/hr
1783Garin WILBY1:41:49.21:41:43.5Male16  7.7 m/hr
1823William DOWNEY1:42:55.51:42:51.8Male17WITNEY ROAD RUNNERS 7.6 m/hr
1990Katy YOUNG1:43:15.01:43:12.7Female2  7.6 m/hr
208Simon BEST1:44:51.41:44:44.9Male18ALCHESTER RUNNING CLUB 7.5 m/hr
2112Jon BURGESS1:44:53.01:44:47.9Male19ALCHESTER RUNNING CLUB 7.5 m/hr
2288Simon WOOLLEY1:44:59.11:44:57.1Male20HOOK NORTON HARRIERS 7.5 m/hr
2392Mark SCHAEFER1:45:02.91:45:02.0Male21LAUFTRAINING.COM 7.5 m/hr
2460Mike POLLARD1:45:05.21:45:02.0Male22CHERWELL RUNNERS & JOGGERS 7.5 m/hr
2589Andrew LISTER1:45:37.01:45:31.1Male23KIDLINGTON RUNNERS 7.4 m/hr
266Danny BATCHELOR1:46:07.61:46:06.2Male24  7.4 m/hr
2754Peter MULLED 1:46:28.61:46:22.4Male25  7.4 m/hr
2815Shaun BYRNE1:46:37.91:46:34.3Male26CHERWELL RUNNERS & JOGGERS 7.4 m/hr
2939Tom HOPKINS1:46:50.91:46:47.9Male27  7.4 m/hr
3079Kurt TRINDER1:47:30.11:47:27.5Male28CHERWELL RUNNERS & JOGGERS 7.3 m/hr
3167James STEAD1:48:26.01:48:18.6Male29  7.2 m/hr
3233Robert GREEN1:48:38.91:48:34.8Male30WITNEY ROAD RUNNERS 7.2 m/hr
332Ben ANDERSON1:49:31.41:49:26.8Male31  7.2 m/hr
3417Richard CHINN1:50:18.81:50:11.4Male32HEADINGTON RR 7.1 m/hr
3527Andrea FINNIGAN1:51:50.21:51:44.9Female3KIDLINGTON RUNNING CLUB 7.0 m/hr
3637Graham HOLLOWELL1:52:43.91:52:40.7Male33WOOTTON ROAD RUNNERS 7.0 m/hr
3749Ross MCANENY1:53:22.71:53:18.0Male34  6.9 m/hr
387Jonathan BATEMAN1:54:28.71:54:25.5Male35ROAD RUNNERS CLUB 6.9 m/hr
3953Ruth MITCHELL1:54:38.81:54:35.1Female4SWINDON STRIDERS 6.9 m/hr
4044David JARRETT1:55:58.21:55:49.0Male36SILSON AC 6.8 m/hr
4122John CRITCHFIELD1:56:23.21:56:19.1Male37HOOK NORTON HARRIERS 6.8 m/hr
4293Rachel PIPER1:56:26.81:56:20.8Female5  6.7 m/hr
4330Nick FISHER1:57:00.91:57:00.9Male38  6.7 m/hr
4414Martin BYFORD1:57:35.51:57:30.9Male39  6.7 m/hr
4555Lee NEWMAN1:58:37.71:58:31.4Male40  6.6 m/hr
4619Alan COOK1:59:56.21:59:54.1Male41  6.6 m/hr
4721Claire COURT2:00:15.22:00:08.5Female6ALCHESTER RUNNING CLUB 6.5 m/hr
4859Darren PHILLIPS2:00:20.02:00:14.5Male42  6.5 m/hr
4986Chris YOXON2:02:01.52:01:55.1Male43  6.4 m/hr
501Alistair ADAMS2:02:01.82:01:55.5Male44  6.4 m/hr
Page 1 of 2 (84 items)
[1]2
fb

HyperLink Copyright (c) G Vincent, 2017